Time;durP1;ratioP1;P1;durP2;ratioP2;P2;SDS_P1;SDS_P2;PMS_P1;PMS_P2;Temp;Humidity;BMP_temperature;BMP_pressure;BME280_temperature;BME280_humidity;BME280_pressure;Samples;Min_cycle;Max_cycle;Signal;HPM_P1;HPM_P2
2021/06/17 00:02:15;;;;;;;6.55;2.95;;;;;;;19.66;60.39;101276.34;5030193;28;20061;-66
2021/06/17 00:04:42;;;;;;;4.82;2.67;;;;;;;19.56;60.40;101276.50;5029385;28;20099;-66
2021/06/17 00:07:10;;;;;;;4.75;2.40;;;;;;;19.58;60.21;101278.22;5029305;28;20501;-66
2021/06/17 00:09:39;;;;;;;3.15;2.35;;;;;;;19.51;60.25;101281.88;5029808;28;20105;-66
2021/06/17 00:12:08;;;;;;;3.40;2.42;;;;;;;19.58;59.87;101278.22;5029587;28;20041;-66
2021/06/17 00:14:36;;;;;;;6.40;2.55;;;;;;;19.64;59.79;101280.81;5029496;28;20053;-66
2021/06/17 00:17:04;;;;;;;4.32;2.55;;;;;;;19.96;58.68;101282.16;5030026;28;20041;-66
2021/06/17 00:19:33;;;;;;;6.13;2.60;;;;;;;19.94;58.44;101281.31;5029986;28;20404;-66
2021/06/17 00:22:00;;;;;;;4.75;2.75;;;;;;;19.47;59.82;101288.19;5028841;28;20497;-66
2021/06/17 00:24:27;;;;;;;3.30;2.20;;;;;;;19.42;59.92;101290.03;5027533;28;20441;-66
2021/06/17 00:26:56;;;;;;;6.80;2.58;;;;;;;19.35;59.74;101281.16;5028834;28;20052;-66
2021/06/17 00:29:24;;;;;;;5.50;2.63;;;;;;;19.33;59.95;101280.28;5028911;28;20125;-66
2021/06/17 00:31:51;;;;;;;4.85;2.15;;;;;;;19.29;59.89;101283.03;5028463;28;20093;-66
2021/06/17 00:34:19;;;;;;;3.75;2.03;;;;;;;19.29;59.88;101288.41;5009840;28;20054;-66
2021/06/17 00:36:46;;;;;;;2.90;2.17;;;;;;;19.20;59.58;101277.78;5016068;28;20393;-66
2021/06/17 00:39:14;;;;;;;5.10;2.58;;;;;;;19.20;59.41;101275.09;5029309;28;20382;-66
2021/06/17 00:41:44;;;;;;;3.67;2.05;;;;;;;19.23;59.16;101280.44;5028449;28;20504;-66
2021/06/17 00:44:13;;;;;;;5.00;2.35;;;;;;;19.18;59.21;101279.56;5028690;28;20073;-66
2021/06/17 00:46:40;;;;;;;5.22;2.38;;;;;;;19.15;58.95;101275.16;5029173;28;20040;-66
2021/06/17 00:49:08;;;;;;;3.33;2.22;;;;;;;19.16;59.05;101286.75;5029295;28;20083;-66
2021/06/17 00:51:36;;;;;;;4.05;2.67;;;;;;;19.15;59.00;101267.13;5028674;28;20033;-66
2021/06/17 00:54:03;;;;;;;4.53;2.90;;;;;;;19.08;59.11;101273.47;5029439;28;20120;-66
2021/06/17 00:56:31;;;;;;;3.63;2.28;;;;;;;19.13;59.35;101270.72;5029193;28;20576;-66
2021/06/17 00:58:59;;;;;;;5.35;2.55;;;;;;;19.08;59.29;101273.47;5028492;28;20125;-66
2021/06/17 01:01:28;;;;;;;4.40;3.17;;;;;;;19.06;59.34;101270.78;5028567;28;20060;-66
2021/06/17 01:03:56;;;;;;;7.25;2.65;;;;;;;19.05;59.35;101269.00;5028785;28;20049;-66
2021/06/17 01:06:23;;;;;;;4.07;2.40;;;;;;;19.02;59.55;101263.72;5028656;28;20080;-66
2021/06/17 01:08:59;;;;;;;3.83;2.10;;;;;;;19.08;59.37;101260.97;5027930;28;20140;-66
2021/06/17 01:11:35;;;;;;;3.85;2.30;;;;;;;19.12;58.92;101261.78;5029199;28;20379;-67
2021/06/17 01:14:07;;;;;;;7.03;2.20;;;;;;;19.08;59.16;101265.44;5026561;28;20043;-66
2021/06/17 01:16:39;;;;;;;3.35;2.35;;;;;;;18.97;59.62;101268.19;5031972;28;20103;-66
2021/06/17 01:19:15;;;;;;;3.92;2.30;;;;;;;18.91;59.91;101270.94;5045564;28;20064;-65
2021/06/17 01:22:03;;;;;;;5.10;2.17;;;;;;;18.85;60.29;101273.69;5048021;28;20040;-66
2021/06/17 01:25:03;;;;;;;3.15;2.05;;;;;;;18.91;59.56;101276.28;5049192;28;20080;-66
2021/06/17 01:28:05;;;;;;;3.13;2.55;;;;;;;18.89;59.33;101270.09;5004014;28;20040;-66
2021/06/17 01:30:40;;;;;;;2.83;2.33;;;;;;;18.88;59.43;101270.09;5005557;28;20436;-66
2021/06/17 01:33:08;;;;;;;4.68;2.70;;;;;;;18.86;59.39;101272.78;5047222;28;20072;-66
2021/06/17 01:35:42;;;;;;;3.70;2.40;;;;;;;18.79;59.61;101271.06;5048405;28;20116;-66
2021/06/17 01:38:12;;;;;;;3.92;2.65;;;;;;;18.82;59.12;101273.72;5048276;28;20052;-67
2021/06/17 01:40:40;;;;;;;4.80;2.55;;;;;;;18.94;59.17;101278.06;5048759;28;20117;-66
2021/06/17 01:43:10;;;;;;;3.22;2.10;;;;;;;18.95;59.27;101272.69;5047692;28;20041;-66
2021/06/17 01:45:38;;;;;;;5.50;2.40;;;;;;;18.85;59.19;101265.66;5048702;28;20493;-66
2021/06/17 01:48:08;;;;;;;4.38;2.05;;;;;;;18.87;58.94;101276.34;5047035;28;20116;-66
2021/06/17 01:50:36;;;;;;;4.70;2.10;;;;;;;18.89;58.50;101278.13;5047846;28;20037;-66
2021/06/17 01:53:05;;;;;;;5.93;2.38;;;;;;;18.93;58.27;101273.59;5047568;28;20041;-66
2021/06/17 01:55:35;;;;;;;5.88;2.08;;;;;;;18.96;58.00;101279.84;5048214;28;20456;-66
2021/06/17 01:58:05;;;;;;;3.30;2.05;;;;;;;18.88;58.30;101275.47;5047265;28;20149;-66
2021/06/17 02:00:36;;;;;;;3.53;2.30;;;;;;;18.67;58.94;101281.91;5047988;28;20183;-66
2021/06/17 02:03:06;;;;;;;5.38;2.70;;;;;;;18.57;59.38;101277.53;5048038;28;20047;-66
2021/06/17 02:05:35;;;;;;;4.40;2.80;;;;;;;18.67;59.75;101268.53;5048278;28;20048;-66
2021/06/17 02:08:04;;;;;;;4.15;2.63;;;;;;;18.73;59.39;101272.91;5028005;28;20045;-66
2021/06/17 02:10:32;;;;;;;7.55;2.63;;;;;;;18.69;59.57;101266.72;5047652;28;20048;-66
2021/06/17 02:13:01;;;;;;;5.60;2.50;;;;;;;18.64;59.80;101261.41;5034718;28;20134;-66
2021/06/17 02:15:31;;;;;;;4.15;2.65;;;;;;;18.70;60.05;101265.84;5031581;28;20037;-66
2021/06/17 02:18:01;;;;;;;3.75;2.70;;;;;;;18.74;59.87;101274.69;5030703;28;20435;-66
2021/06/17 02:20:28;;;;;;;4.85;2.55;;;;;;;18.58;60.14;101277.50;5031934;28;20257;-66
2021/06/17 02:23:00;;;;;;;6.22;2.78;;;;;;;18.65;59.93;101273.00;5034321;28;20055;-66
2021/06/17 02:25:29;;;;;;;3.65;1.98;;;;;;;18.71;59.94;101278.28;5032987;28;20324;-66
2021/06/17 02:28:01;;;;;;;4.95;2.45;;;;;;;18.65;59.92;101279.22;5032053;28;20500;-66
2021/06/17 02:30:33;;;;;;;4.97;2.42;;;;;;;18.51;60.12;101277.56;5030951;28;20049;-66
2021/06/17 02:33:06;;;;;;;5.65;2.90;;;;;;;18.49;60.19;101279.34;5031493;28;20042;-66
2021/06/17 02:35:37;;;;;;;6.38;2.92;;;;;;;18.58;59.71;101276.63;5051638;28;20076;-67
2021/06/17 02:38:07;;;;;;;7.75;2.50;;;;;;;18.67;59.95;101276.53;5030157;28;20525;-66
2021/06/17 02:40:37;;;;;;;4.72;3.00;;;;;;;18.82;60.02;101273.72;5051574;28;20044;-66
2021/06/17 02:43:09;;;;;;;5.25;2.70;;;;;;;18.94;59.52;101270.94;5038029;28;20041;-66
2021/06/17 02:45:37;;;;;;;4.68;2.58;;;;;;;18.56;60.58;101271.31;5050437;28;20610;-66
2021/06/17 02:48:07;;;;;;;5.55;2.60;;;;;;;18.51;60.62;101270.41;5052059;28;20047;-66
2021/06/17 02:50:35;;;;;;;5.57;2.75;;;;;;;18.43;61.35;101268.72;5051372;28;20408;-66
2021/06/17 02:53:02;;;;;;;5.82;2.78;;;;;;;18.28;62.14;101278.63;5050348;28;20392;-67
2021/06/17 02:55:30;;;;;;;6.13;3.42;;;;;;;18.38;61.86;101284.78;5051403;28;20043;-66
2021/06/17 02:58:09;;;;;;;5.55;3.20;;;;;;;18.42;61.56;101285.66;5050459;28;20037;-66
2021/06/17 03:00:44;;;;;;;5.63;2.80;;;;;;;18.32;61.90;101283.03;5050504;28;20552;-66
2021/06/17 03:03:17;;;;;;;5.45;2.88;;;;;;;18.26;62.17;101288.44;5033470;28;20094;-66
2021/06/17 03:05:51;;;;;;;6.53;2.70;;;;;;;18.37;61.59;101285.69;5031068;28;20219;-66
2021/06/17 03:08:22;;;;;;;4.30;2.50;;;;;;;18.47;61.32;101284.72;5030872;28;20049;-67
2021/06/17 03:10:53;;;;;;;4.80;2.45;;;;;;;18.48;60.97;101286.50;5030543;28;20405;-66
2021/06/17 03:13:25;;;;;;;4.28;2.42;;;;;;;18.48;61.29;101280.25;5030238;28;20171;-66
2021/06/17 03:15:53;;;;;;;7.93;2.58;;;;;;;18.32;61.98;101291.06;5030428;28;20136;-66
2021/06/17 03:18:26;;;;;;;8.02;2.72;;;;;;;18.28;62.21;101288.44;5030263;28;20124;-66
2021/06/17 03:20:58;;;;;;;4.53;2.70;;;;;;;18.31;62.31;101286.59;5030156;28;20402;-66
2021/06/17 03:23:28;;;;;;;6.50;3.30;;;;;;;18.37;62.87;101284.81;5030678;28;20049;-66
2021/06/17 03:26:00;;;;;;;4.68;3.17;;;;;;;18.42;62.53;101291.00;5030086;28;20392;-66
2021/06/17 03:28:29;;;;;;;4.78;2.72;;;;;;;18.57;62.86;101273.09;5029609;28;20045;-66
2021/06/17 03:30:57;;;;;;;4.55;3.08;;;;;;;18.71;62.70;101288.97;5030774;28;20144;-66
2021/06/17 03:33:32;;;;;;;5.20;2.72;;;;;;;18.85;62.70;101288.84;5030015;28;20116;-66
2021/06/17 03:36:01;;;;;;;4.43;2.15;;;;;;;19.05;62.26;101290.41;5030122;28;20042;-66
2021/06/17 03:38:31;;;;;;;5.40;2.60;;;;;;;19.24;62.55;101290.22;5030563;28;20042;-66
2021/06/17 03:41:00;;;;;;;5.68;2.63;;;;;;;19.33;62.77;101291.00;5030086;28;20393;-66
2021/06/17 03:43:28;;;;;;;5.32;2.53;;;;;;;19.49;62.69;101297.09;5030544;28;20427;-66
2021/06/17 03:45:58;;;;;;;6.65;2.67;;;;;;;19.68;62.63;101295.06;5030200;28;20036;-67
2021/06/17 03:48:27;;;;;;;2.15;1.92;;;;;;;19.94;62.31;101294.72;5028971;28;20052;-67
2021/06/17 03:50:55;;;;;;;4.32;2.05;;;;;;;20.09;62.01;101289.09;5010046;28;20050;-66
2021/06/17 03:53:24;;;;;;;4.95;2.17;;;;;;;20.27;62.03;101287.06;5010680;28;20150;-66
2021/06/17 03:55:55;;;;;;;4.75;2.22;;;;;;;20.48;62.05;101296.56;5010369;28;20448;-66
2021/06/17 03:58:25;;;;;;;3.95;2.45;;;;;;;20.65;61.69;101293.59;4990116;28;20042;-66
2021/06/17 04:00:54;;;;;;;4.25;2.15;;;;;;;20.80;61.43;101293.34;4999981;28;20316;-66
2021/06/17 04:03:22;;;;;;;5.55;2.40;;;;;;;21.04;61.36;101289.31;4990673;28;20046;-66
2021/06/17 04:05:51;;;;;;;3.33;2.33;;;;;;;21.28;61.09;101296.91;4990051;28;20413;-66
2021/06/17 04:08:22;;;;;;;8.30;2.60;;;;;;;21.46;61.04;101295.69;4990736;28;20552;-67
2021/06/17 04:10:51;;;;;;;4.88;2.05;;;;;;;21.60;60.62;101296.25;4990471;28;20116;-67
2021/06/17 04:13:18;;;;;;;3.28;2.10;;;;;;;21.71;60.70;101296.03;4990017;28;20085;-67
2021/06/17 04:15:48;;;;;;;5.00;1.85;;;;;;;21.95;60.75;101300.88;5008383;28;20624;-67
2021/06/17 04:18:16;;;;;;;4.90;2.08;;;;;;;22.19;59.97;101296.75;5007306;28;20064;-67
2021/06/17 04:20:45;;;;;;;4.55;2.17;;;;;;;22.36;59.21;101297.25;5002283;28;20122;-67
2021/06/17 04:23:19;;;;;;;4.00;1.58;;;;;;;22.60;58.56;101301.13;5001174;28;20045;-67
2021/06/17 04:25:48;;;;;;;4.78;1.77;;;;;;;22.88;58.54;101313.00;5010085;28;20034;-67
2021/06/17 04:28:16;;;;;;;5.43;2.30;;;;;;;23.13;58.22;101305.13;5009975;28;20064;-67
2021/06/17 04:30:46;;;;;;;4.78;2.17;;;;;;;23.40;57.45;101303.47;5009347;28;20558;-67
2021/06/17 04:33:18;;;;;;;4.65;2.05;;;;;;;23.64;57.38;101308.19;5009190;28;20042;-67
2021/06/17 04:35:48;;;;;;;7.82;2.17;;;;;;;23.92;56.83;101310.06;5001288;28;20609;-67
2021/06/17 04:38:19;;;;;;;8.23;2.00;;;;;;;24.20;56.61;101319.09;4989595;28;20038;-67
2021/06/17 04:40:48;;;;;;;4.28;1.75;;;;;;;24.43;55.85;101321.91;4988947;28;20073;-67
2021/06/17 04:43:21;;;;;;;3.85;1.73;;;;;;;24.68;55.36;101329.22;5007710;28;20046;-67
2021/06/17 04:45:50;;;;;;;4.65;1.80;;;;;;;24.96;54.77;101327.38;5009589;28;20041;-67
2021/06/17 04:48:18;;;;;;;6.05;1.58;;;;;;;25.27;53.89;101335.31;5007637;28;20137;-68
2021/06/17 04:50:47;;;;;;;6.00;2.28;;;;;;;25.56;52.94;101336.91;5030985;28;20663;-67
2021/06/17 04:53:18;;;;;;;3.38;1.95;;;;;;;25.86;52.19;101335.81;5026255;28;20042;-66
2021/06/17 04:55:49;;;;;;;3.70;1.88;;;;;;;26.20;51.58;101338.94;5022485;28;20033;-67
2021/06/17 04:58:17;;;;;;;4.72;1.80;;;;;;;26.55;50.38;101339.38;5023014;28;20037;-67
2021/06/17 05:00:45;;;;;;;7.00;2.10;;;;;;;26.91;49.83;101337.84;5023740;28;20045;-66
2021/06/17 05:03:12;;;;;;;5.32;1.48;;;;;;;27.24;49.07;101334.63;5020797;28;20076;-67
2021/06/17 05:05:40;;;;;;;8.27;2.20;;;;;;;27.56;48.28;101342.25;5021878;28;20042;-67
2021/06/17 05:10:57;;;;;;;4.68;1.63;;;;;;;28.13;48.13;101351.31;5026762;28;20143;-67
2021/06/17 05:13:27;;;;;;;5.70;1.90;;;;;;;28.36;47.97;101345.66;5025333;28;20041;-67
2021/06/17 05:15:55;;;;;;;4.90;1.77;;;;;;;28.62;48.12;101340.81;5024159;28;20128;-67
2021/06/17 05:18:24;;;;;;;6.03;2.08;;;;;;;28.82;48.03;101338.84;5046470;28;20061;-67
2021/06/17 05:20:52;;;;;;;6.55;1.80;;;;;;;29.04;48.31;101346.78;5023604;28;20057;-67
2021/06/17 05:23:22;;;;;;;6.10;2.10;;;;;;;29.27;48.29;101354.66;5022897;28;20049;-67
2021/06/17 05:25:51;;;;;;;7.28;2.33;;;;;;;29.29;47.95;101347.28;5019033;28;20489;-67
2021/06/17 05:28:22;;;;;;;6.63;2.05;;;;;;;29.64;47.88;101345.41;5022718;28;20034;-67
2021/06/17 05:30:50;;;;;;;4.72;1.70;;;;;;;29.81;47.23;101347.19;5026420;28;20049;-67
2021/06/17 05:33:18;;;;;;;7.30;1.80;;;;;;;29.80;47.75;101355.47;5021859;28;20489;-67
2021/06/17 05:35:47;;;;;;;4.78;1.92;;;;;;;30.00;47.33;101353.41;5005720;28;20141;-67
2021/06/17 05:38:17;;;;;;;7.07;1.77;;;;;;;30.15;46.64;101345.34;5004940;28;20037;-66
2021/06/17 05:40:45;;;;;;;7.07;1.85;;;;;;;30.22;46.25;101346.78;5033071;28;20044;-67
2021/06/17 05:43:13;;;;;;;8.38;2.10;;;;;;;30.46;45.85;101348.06;5022634;28;20047;-67
2021/06/17 05:45:42;;;;;;;9.35;2.00;;;;;;;30.65;45.41;101351.56;5026586;28;20053;-67
2021/06/17 05:48:10;;;;;;;7.68;1.73;;;;;;;30.72;45.19;101355.66;5028098;28;20038;-66
2021/06/17 05:50:38;;;;;;;5.65;1.98;;;;;;;30.71;45.04;101353.91;5030337;28;20168;-67
2021/06/17 05:53:06;;;;;;;5.05;1.70;;;;;;;30.83;45.10;101352.31;5030952;28;20058;-67
2021/06/17 05:55:34;;;;;;;5.65;2.22;;;;;;;30.83;44.93;101345.00;5025602;28;20045;-67
2021/06/17 05:58:02;;;;;;;5.90;1.50;;;;;;;31.12;44.27;101348.72;5025550;28;20041;-67
2021/06/17 06:00:31;;;;;;;5.07;1.77;;;;;;;31.00;44.33;101341.25;5029513;28;20125;-67
2021/06/17 06:03:00;;;;;;;6.57;2.00;;;;;;;30.74;44.13;101345.53;5029409;28;20812;-67
2021/06/17 06:05:28;;;;;;;4.55;1.23;;;;;;;30.57;43.98;101344.78;5027122;28;20053;-67
2021/06/17 06:08:00;;;;;;;3.80;1.58;;;;;;;30.79;43.66;101348.88;5034322;28;20123;-67
2021/06/17 06:10:29;;;;;;;5.03;1.98;;;;;;;30.36;44.11;101345.03;5028969;28;20129;-67
2021/06/17 06:12:58;;;;;;;4.63;1.80;;;;;;;30.26;44.31;101340.19;5032321;28;20045;-67
2021/06/17 06:15:33;;;;;;;5.35;2.00;;;;;;;30.45;43.64;101346.34;5031781;28;20507;-67
2021/06/17 06:18:10;;;;;;;3.72;1.48;;;;;;;30.38;43.16;101354.00;5030383;28;20133;-67
2021/06/17 06:20:41;;;;;;;4.95;1.60;;;;;;;30.38;43.04;101344.94;5047797;28;20044;-67
2021/06/17 06:23:13;;;;;;;2.13;1.20;;;;;;;30.63;42.38;101348.03;5049128;28;20047;-67
2021/06/17 06:25:45;;;;;;;3.83;1.75;;;;;;;30.43;42.73;101346.44;5038832;28;20079;-67
2021/06/17 06:28:15;;;;;;;5.57;1.50;;;;;;;30.61;42.01;101349.06;5030879;28;20041;-66
2021/06/17 06:30:43;;;;;;;3.22;1.60;;;;;;;30.87;41.01;101348.41;5033488;28;20087;-67
2021/06/17 06:33:12;;;;;;;5.15;1.98;;;;;;;30.99;41.06;101350.41;5037746;28;20120;-67
2021/06/17 06:35:40;;;;;;;3.28;1.20;;;;;;;30.97;40.74;101354.22;5031456;28;20038;-67
2021/06/17 06:38:07;;;;;;;2.85;1.60;;;;;;;30.75;41.24;101349.16;5028577;28;20108;-67
2021/06/17 06:40:36;;;;;;;5.75;1.48;;;;;;;30.74;40.99;101348.28;5033475;28;20493;-67
2021/06/17 06:43:06;;;;;;;5.45;1.38;;;;;;;30.59;41.62;101357.34;5050462;28;20033;-67
2021/06/17 06:45:35;;;;;;;3.30;1.30;;;;;;;30.86;40.98;101363.03;5031340;28;20041;-67
2021/06/17 06:48:05;;;;;;;4.82;1.95;;;;;;;31.05;40.77;101352.78;5046588;28;20040;-67
2021/06/17 06:50:36;;;;;;;3.08;1.42;;;;;;;31.12;41.10;101358.75;5048115;28;21543;-67
2021/06/17 06:53:07;;;;;;;4.45;1.45;;;;;;;31.18;41.06;101361.13;5046643;28;20041;-67
2021/06/17 06:55:35;;;;;;;4.43;1.55;;;;;;;31.18;41.25;101363.84;5046753;28;20053;-67
2021/06/17 06:58:03;;;;;;;4.00;1.42;;;;;;;31.27;40.96;101371.47;5046699;28;20079;-67
2021/06/17 07:00:32;;;;;;;2.50;1.20;;;;;;;31.21;41.31;101360.94;5044767;28;20053;-67
2021/06/17 07:02:59;;;;;;;4.63;1.90;;;;;;;31.13;41.95;101360.53;5048029;28;20136;-67
2021/06/17 07:05:27;;;;;;;5.28;1.83;;;;;;;31.23;41.68;101370.81;5049933;28;20076;-67
2021/06/17 07:07:56;;;;;;;6.22;1.40;;;;;;;31.20;41.79;101370.09;5032473;28;20404;-67
2021/06/17 07:10:23;;;;;;;5.55;1.55;;;;;;;31.10;41.76;101368.91;5041267;28;20068;-67
2021/06/17 07:12:51;;;;;;;4.43;1.30;;;;;;;31.37;41.52;101374.53;5049848;28;20033;-67
2021/06/17 07:15:18;;;;;;;6.28;1.10;;;;;;;31.54;41.03;101374.38;5049099;28;20083;-66
2021/06/17 07:17:45;;;;;;;4.47;1.30;;;;;;;31.45;41.28;101373.06;5042565;28;20041;-67
2021/06/17 07:20:14;;;;;;;7.95;1.23;;;;;;;31.67;39.92;101365.34;5049486;28;20128;-67
2021/06/17 07:22:41;;;;;;;5.70;1.40;;;;;;;31.71;39.72;101374.22;5049104;28;20509;-67
2021/06/17 07:25:12;;;;;;;6.22;1.63;;;;;;;31.63;39.81;101374.72;5049669;28;20119;-67
2021/06/17 07:27:40;;;;;;;6.10;1.38;;;;;;;31.52;40.32;101371.72;5049601;28;20040;-67
2021/06/17 07:30:09;;;;;;;4.90;1.55;;;;;;;31.25;40.44;101370.69;5050412;28;20033;-67
2021/06/17 07:32:37;;;;;;;3.28;1.48;;;;;;;31.16;40.69;101365.81;5048663;28;20516;-67
2021/06/17 07:35:06;;;;;;;6.07;1.60;;;;;;;31.13;41.51;101365.97;5049442;28;20029;-67
2021/06/17 07:37:35;;;;;;;3.63;1.40;;;;;;;30.95;41.78;101367.94;5050537;28;20047;-67
2021/06/17 07:40:05;;;;;;;5.72;1.83;;;;;;;30.62;42.11;101379.00;5047437;28;20041;-67
2021/06/17 07:42:34;;;;;;;4.10;1.70;;;;;;;30.84;42.08;101379.50;5048106;28;20044;-67
2021/06/17 07:45:01;;;;;;;5.10;1.65;;;;;;;30.66;42.38;101379.66;5049441;28;20044;-68
2021/06/17 07:47:29;;;;;;;6.68;1.77;;;;;;;30.87;42.43;101383.88;5049431;28;20045;-67
2021/06/17 07:49:56;;;;;;;5.22;1.67;;;;;;;31.19;42.05;101385.59;5049698;28;20299;-68
2021/06/17 07:52:24;;;;;;;5.43;1.45;;;;;;;31.41;41.74;101389.75;5046080;28;20220;-67
2021/06/17 07:54:51;;;;;;;4.72;1.50;;;;;;;31.37;40.87;101390.91;5041017;28;20038;-67
2021/06/17 07:57:19;;;;;;;5.18;1.73;;;;;;;31.04;41.35;101389.22;5028483;28;20037;-67
2021/06/17 07:59:47;;;;;;;3.50;1.50;;;;;;;30.92;41.37;101398.13;5028680;28;20045;-66
2021/06/17 08:02:15;;;;;;;5.10;1.75;;;;;;;30.81;41.70;101400.59;5028581;28;20605;-67
2021/06/17 08:04:43;;;;;;;5.13;1.77;;;;;;;30.88;40.92;101405.59;5027543;28;20038;-66
2021/06/17 08:07:11;;;;;;;3.13;1.10;;;;;;;30.80;40.82;101405.19;5027923;28;20091;-66
2021/06/17 08:09:40;;;;;;;6.63;1.63;;;;;;;30.88;40.42;101404.72;5029278;28;20034;-66
2021/06/17 08:12:09;;;;;;;6.13;1.55;;;;;;;31.02;39.63;101410.25;5037746;28;20397;-66
2021/06/17 08:14:36;;;;;;;3.42;1.40;;;;;;;31.04;39.94;101415.63;5040578;28;20037;-67
2021/06/17 08:17:06;;;;;;;3.38;1.80;;;;;;;31.05;41.10;101410.09;5029428;28;20043;-66
2021/06/17 08:19:34;;;;;;;6.68;2.20;;;;;;;31.03;41.14;101412.03;5028824;28;20444;-66
2021/06/17 08:22:04;;;;;;;5.35;1.70;;;;;;;30.88;41.02;101413.78;5028982;28;20608;-67
2021/06/17 08:24:32;;;;;;;3.83;1.52;;;;;;;30.90;41.17;101419.16;5027709;28;20100;-66
2021/06/17 08:26:59;;;;;;;6.75;1.70;;;;;;;30.69;41.28;101413.09;5027000;28;20073;-67
2021/06/17 08:29:27;;;;;;;3.25;1.38;;;;;;;30.76;40.61;101428.16;5011810;28;20124;-66
2021/06/17 08:31:54;;;;;;;8.52;1.90;;;;;;;30.86;40.75;101418.44;5028157;28;20037;-67
2021/06/17 08:34:25;;;;;;;2.78;1.40;;;;;;;31.04;40.66;101418.34;5029516;28;20383;-67
2021/06/17 08:36:53;;;;;;;4.43;1.50;;;;;;;31.26;39.63;101419.72;5029245;28;20037;-67
2021/06/17 08:39:20;;;;;;;5.65;1.85;;;;;;;31.07;39.64;101426.38;5018389;28;20041;-66
2021/06/17 08:41:48;;;;;;;3.58;1.30;;;;;;;30.92;39.88;101430.84;5010031;28;20108;-66
2021/06/17 08:44:16;;;;;;;3.13;1.40;;;;;;;30.97;39.75;101420.56;5020607;28;20104;-67
2021/06/17 08:46:43;;;;;;;3.55;1.65;;;;;;;30.99;39.60;101434.97;5026400;28;20058;-67
2021/06/17 08:49:11;;;;;;;4.40;1.45;;;;;;;31.03;39.32;101430.22;5028893;28;20626;-66
2021/06/17 08:51:40;;;;;;;11.23;1.58;;;;;;;31.15;38.92;101430.41;5029602;28;20079;-67
2021/06/17 08:54:08;;;;;;;4.78;1.52;;;;;;;31.35;38.25;101429.22;5029371;28;20044;-67
2021/06/17 08:56:36;;;;;;;5.75;2.03;;;;;;;31.37;37.55;101426.41;5047581;28;20041;-66
2021/06/17 08:59:06;;;;;;;2.53;1.05;;;;;;;31.24;35.58;101435.31;5032728;28;20106;-66
2021/06/17 09:01:34;;;;;;;2.88;1.27;;;;;;;30.85;35.13;101435.78;5044540;28;20053;-66
2021/06/17 09:04:03;;;;;;;4.28;1.33;;;;;;;30.84;34.94;101441.34;5044594;28;20063;-66
2021/06/17 09:06:32;;;;;;;5.88;1.15;;;;;;;30.96;35.57;101435.16;5046070;28;20047;-66
2021/06/17 09:09:05;;;;;;;3.13;1.20;;;;;;;31.12;35.44;101448.81;5043776;28;20037;-67
2021/06/17 09:11:32;;;;;;;2.33;1.20;;;;;;;31.00;35.27;101450.38;5028263;28;20183;-66
2021/06/17 09:14:21;;;;;;;2.75;1.48;;;;;;;31.02;36.52;101444.84;5027931;28;20128;-67
2021/06/17 09:16:59;;;;;;;3.83;1.55;;;;;;;30.87;37.16;101447.50;5022747;28;20049;-67
2021/06/17 09:19:38;;;;;;;3.05;1.42;;;;;;;30.76;37.05;101446.34;5026869;28;20579;-66
2021/06/17 09:22:05;;;;;;;6.20;1.73;;;;;;;30.82;37.64;101446.88;5021769;28;20076;-66
2021/06/17 09:24:37;;;;;;;5.13;1.70;;;;;;;30.64;37.92;101450.69;5028424;28;20041;-67
2021/06/17 09:27:25;;;;;;;4.57;1.83;;;;;;;30.77;37.87;101443.56;5028818;28;20033;-67
2021/06/17 09:29:54;;;;;;;3.17;1.50;;;;;;;30.75;37.75;101447.31;5028066;28;20113;-67
2021/06/17 09:32:24;;;;;;;3.47;1.75;;;;;;;30.71;37.70;101440.28;5029573;28;20045;-67
2021/06/17 09:34:52;;;;;;;4.60;1.70;;;;;;;30.78;38.27;101452.63;5028676;28;20049;-67
2021/06/17 09:37:43;;;;;;;2.55;1.45;;;;;;;30.65;36.79;101446.09;5028583;28;20125;-67
2021/06/17 09:40:30;;;;;;;4.93;1.90;;;;;;;30.47;38.67;101445.25;5016155;28;20046;-67
2021/06/17 09:43:20;;;;;;;6.43;2.72;;;;;;;30.84;39.69;101442.22;5028193;28;20075;-67
2021/06/17 09:45:59;;;;;;;4.55;1.80;;;;;;;30.79;39.61;101433.41;5044301;28;20033;-67
2021/06/17 09:48:36;;;;;;;3.13;1.50;;;;;;;30.80;39.61;101439.75;5025872;28;20084;-66
2021/06/17 09:51:24;;;;;;;4.05;1.35;;;;;;;30.83;38.86;101436.84;4980228;28;20530;-67
2021/06/17 09:53:54;;;;;;;3.67;1.67;;;;;;;30.57;39.17;101435.63;4987533;28;20038;-67
2021/06/17 09:56:34;;;;;;;7.93;1.60;;;;;;;30.47;39.08;101435.22;4987860;28;20533;-67
2021/06/17 09:59:02;;;;;;;4.28;1.50;;;;;;;30.22;38.67;101433.97;4979150;28;20051;-67
2021/06/17 10:01:34;;;;;;;2.83;1.50;;;;;;;30.18;38.05;101435.09;4992142;28;20057;-66
2021/06/17 10:04:03;;;;;;;6.10;1.77;;;;;;;30.39;38.16;101426.59;4988123;28;20050;-66
2021/06/17 10:06:31;;;;;;;5.10;1.90;;;;;;;30.34;38.56;101436.00;4989641;28;20089;-66
2021/06/17 10:08:59;;;;;;;2.70;1.25;;;;;;;30.22;38.30;101426.66;5003478;28;20049;-66
2021/06/17 10:11:28;;;;;;;3.38;1.50;;;;;;;30.13;37.38;101429.88;5009101;28;20045;-66
2021/06/17 10:13:56;;;;;;;3.22;1.38;;;;;;;30.14;36.69;101425.31;5007194;28;20401;-66
2021/06/17 10:16:24;;;;;;;4.65;1.50;;;;;;;30.17;35.60;101430.63;5008285;28;20037;-66
2021/06/17 10:18:52;;;;;;;3.38;1.17;;;;;;;30.16;35.52;101434.31;5008714;28;20054;-66
2021/06/17 10:21:19;;;;;;;5.38;1.85;;;;;;;30.01;36.34;101436.00;4998116;28;20125;-66
2021/06/17 10:23:50;;;;;;;5.80;1.75;;;;;;;29.82;37.83;101430.66;4989244;28;20041;-65
2021/06/17 10:26:20;;;;;;;5.78;1.48;;;;;;;29.73;38.39;101433.00;4989340;28;20046;-66
2021/06/17 10:28:50;;;;;;;5.03;1.80;;;;;;;29.66;37.61;101429.72;4988910;28;20052;-65
2021/06/17 10:31:47;;;;;;;5.43;1.70;;;;;;;29.69;38.04;101430.44;4996095;28;20121;-66
2021/06/17 10:34:40;;;;;;;4.55;1.17;;;;;;;29.80;37.83;101431.72;4995568;28;20050;-66
2021/06/17 10:37:10;;;;;;;5.82;1.55;;;;;;;29.82;38.28;101436.09;4986365;28;20056;-66
2021/06/17 10:39:39;;;;;;;5.18;1.25;;;;;;;29.64;38.37;101427.09;5012332;28;20115;-66
2021/06/17 10:42:15;;;;;;;5.20;1.45;;;;;;;29.73;38.67;101429.31;5012162;28;20037;-66
2021/06/17 10:44:51;;;;;;;3.78;1.70;;;;;;;29.59;40.42;101434.63;5007524;28;20402;-66
2021/06/17 10:47:52;;;;;;;8.00;2.38;;;;;;;29.40;41.09;101428.38;5002472;28;20038;-66
2021/06/17 10:50:22;;;;;;;7.88;1.80;;;;;;;29.60;40.92;101424.63;4968210;28;20047;-66
2021/06/17 10:52:52;;;;;;;4.70;1.90;;;;;;;29.96;39.80;101432.66;4969214;28;20189;-65
2021/06/17 10:55:21;;;;;;;4.35;1.77;;;;;;;29.83;40.89;101435.16;4989872;28;20529;-66
2021/06/17 10:57:55;;;;;;;8.55;1.90;;;;;;;30.01;40.74;101423.28;5010618;28;20046;-66
2021/06/17 11:00:51;;;;;;;5.40;1.92;;;;;;;30.12;41.65;101419.09;5008837;28;20046;-66
2021/06/17 11:03:39;;;;;;;5.60;1.90;;;;;;;30.08;40.84;101429.28;5009124;28;20044;-67
2021/06/17 11:06:06;;;;;;;5.35;1.67;;;;;;;30.22;39.50;101423.94;5009176;28;20061;-66
2021/06/17 11:08:34;;;;;;;6.03;2.33;;;;;;;30.25;39.74;101428.34;5010641;28;20522;-66
2021/06/17 11:11:03;;;;;;;5.82;1.90;;;;;;;30.18;40.90;101425.09;5009989;28;20052;-66
2021/06/17 11:13:32;;;;;;;8.15;2.20;;;;;;;30.25;41.33;101425.63;5010158;28;20405;-66
2021/06/17 11:16:02;;;;;;;4.93;1.90;;;;;;;30.30;40.49;101429.84;5009856;28;21567;-66
2021/06/17 11:19:03;;;;;;;3.95;1.25;;;;;;;30.03;39.04;101429.53;5005295;28;20144;-66
2021/06/17 11:21:49;;;;;;;4.38;1.90;;;;;;;30.09;39.81;101423.75;5004805;28;20125;-65
2021/06/17 11:24:33;;;;;;;6.47;1.80;;;;;;;30.35;39.46;101427.75;5005582;28;20052;-66
2021/06/17 11:27:01;;;;;;;3.72;1.50;;;;;;;30.47;38.88;101429.78;4991631;28;20100;-66
2021/06/17 11:29:58;;;;;;;3.80;1.27;;;;;;;30.97;37.54;101428.75;5006435;28;20552;-66
2021/06/17 11:32:29;;;;;;;4.57;1.83;;;;;;;31.21;36.56;101427.31;5014085;28;20688;-66
2021/06/17 11:34:57;;;;;;;2.40;1.30;;;;;;;31.56;35.18;101427.94;5010179;28;20091;-66
2021/06/17 11:37:30;;;;;;;4.88;1.80;;;;;;;31.88;35.32;101427.81;5010831;28;20066;-66
2021/06/17 11:39:57;;;;;;;4.13;1.42;;;;;;;31.49;36.46;101423.81;5010370;28;20042;-66
2021/06/17 11:42:25;;;;;;;2.90;1.30;;;;;;;31.52;36.38;101423.59;5009818;28;20125;-66
2021/06/17 11:45:00;;;;;;;2.88;1.10;;;;;;;31.52;34.88;101426.34;5003552;28;20460;-66